sensor_id;sensor_type;location;lat;lon;timestamp;temperature;humidity
57719;DHT22;43561;50.090;18.522;2023-09-19T02:42:56;19.30;99.90
57719;DHT22;43561;50.090;18.522;2023-09-19T03:50:44;19.30;99.90
57719;DHT22;43561;50.090;18.522;2023-09-19T04:01:12;19.20;99.90
57719;DHT22;43561;50.090;18.522;2023-09-19T04:34:36;18.90;99.90
57719;DHT22;43561;50.090;18.522;2023-09-19T04:56:09;18.70;99.90
57719;DHT22;43561;50.090;18.522;2023-09-19T05:06:12;18.50;99.90
57719;DHT22;43561;50.090;18.522;2023-09-19T05:16:15;18.40;99.90
57719;DHT22;43561;50.090;18.522;2023-09-19T05:26:18;18.40;99.90
57719;DHT22;43561;50.090;18.522;2023-09-19T05:36:20;18.10;99.90
57719;DHT22;43561;50.090;18.522;2023-09-19T05:46:22;18.00;99.90
57719;DHT22;43561;50.090;18.522;2023-09-19T05:56:25;17.80;99.90
57719;DHT22;43561;50.090;18.522;2023-09-19T06:06:27;17.60;99.90
57719;DHT22;43561;50.090;18.522;2023-09-19T06:16:30;17.30;99.90
57719;DHT22;43561;50.090;18.522;2023-09-19T06:26:32;17.20;99.90
57719;DHT22;43561;50.090;18.522;2023-09-19T06:36:34;17.30;99.90
57719;DHT22;43561;50.090;18.522;2023-09-19T06:46:36;17.60;99.90
57719;DHT22;43561;50.090;18.522;2023-09-19T06:56:38;17.80;99.90
57719;DHT22;43561;50.090;18.522;2023-09-19T07:06:43;18.00;99.90
57719;DHT22;43561;50.090;18.522;2023-09-19T07:16:45;18.00;99.90
57719;DHT22;43561;50.090;18.522;2023-09-19T07:26:46;18.10;99.90
57719;DHT22;43561;50.090;18.522;2023-09-19T07:36:48;18.10;99.90
57719;DHT22;43561;50.090;18.522;2023-09-19T07:46:50;18.00;99.90
57719;DHT22;43561;50.090;18.522;2023-09-19T07:56:52;18.10;99.90
57719;DHT22;43561;50.090;18.522;2023-09-19T08:06:54;18.20;99.90
57719;DHT22;43561;50.090;18.522;2023-09-19T08:16:57;18.40;99.90
57719;DHT22;43561;50.090;18.522;2023-09-19T08:27:00;18.50;99.90
57719;DHT22;43561;50.090;18.522;2023-09-19T08:37:02;18.60;99.90
57719;DHT22;43561;50.090;18.522;2023-09-19T08:47:10;18.70;99.90
57719;DHT22;43561;50.090;18.522;2023-09-19T08:57:17;19.00;99.90
57719;DHT22;43561;50.090;18.522;2023-09-19T09:07:20;19.00;99.90
57719;DHT22;43561;50.090;18.522;2023-09-19T09:17:23;19.00;99.90
57719;DHT22;43561;50.090;18.522;2023-09-19T09:27:26;19.20;99.90
57719;DHT22;43561;50.090;18.522;2023-09-19T09:37:28;19.20;99.90
57719;DHT22;43561;50.090;18.522;2023-09-19T09:47:49;19.20;99.90
57719;DHT22;43561;50.090;18.522;2023-09-19T09:58:17;19.30;99.90
57719;DHT22;43561;50.090;18.522;2023-09-19T10:08:19;19.40;99.90
57719;DHT22;43561;50.090;18.522;2023-09-19T10:18:23;19.40;99.90
57719;DHT22;43561;50.090;18.522;2023-09-19T10:28:28;19.40;99.90
57719;DHT22;43561;50.090;18.522;2023-09-19T10:38:30;19.20;99.90
57719;DHT22;43561;50.090;18.522;2023-09-19T10:48:34;18.70;99.90
57719;DHT22;43561;50.090;18.522;2023-09-19T10:58:38;18.70;99.90
57719;DHT22;43561;50.090;18.522;2023-09-19T11:08:58;18.80;99.90
57719;DHT22;43561;50.090;18.522;2023-09-19T11:19:00;19.00;99.90
57719;DHT22;43561;50.090;18.522;2023-09-19T11:29:28;19.00;99.90
57719;DHT22;43561;50.090;18.522;2023-09-19T11:39:31;19.70;99.90
57719;DHT22;43561;50.090;18.522;2023-09-19T11:49:33;19.80;99.90
57719;DHT22;43561;50.090;18.522;2023-09-19T11:59:38;20.00;99.90
57719;DHT22;43561;50.090;18.522;2023-09-19T12:09:44;20.20;99.90
57719;DHT22;43561;50.090;18.522;2023-09-19T12:19:56;20.40;99.90
57719;DHT22;43561;50.090;18.522;2023-09-19T12:29:58;20.80;99.90
57719;DHT22;43561;50.090;18.522;2023-09-19T12:40:09;21.00;99.90
57719;DHT22;43561;50.090;18.522;2023-09-19T12:50:15;21.20;99.90
57719;DHT22;43561;50.090;18.522;2023-09-19T13:00:17;21.30;99.90
57719;DHT22;43561;50.090;18.522;2023-09-19T13:10:19;21.40;99.90
57719;DHT22;43561;50.090;18.522;2023-09-19T13:30:55;21.70;99.90
57719;DHT22;43561;50.090;18.522;2023-09-19T13:40:58;21.90;99.90
57719;DHT22;43561;50.090;18.522;2023-09-19T13:51:02;21.70;99.90
57719;DHT22;43561;50.090;18.522;2023-09-19T14:01:04;21.60;99.90
57719;DHT22;43561;50.090;18.522;2023-09-19T14:11:07;21.10;99.90
57719;DHT22;43561;50.090;18.522;2023-09-19T14:21:09;20.70;99.90
57719;DHT22;43561;50.090;18.522;2023-09-19T14:31:11;20.40;99.90
57719;DHT22;43561;50.090;18.522;2023-09-19T14:41:13;18.00;99.90
57719;DHT22;43561;50.090;18.522;2023-09-19T14:51:19;17.30;99.90
57719;DHT22;43561;50.090;18.522;2023-09-19T15:01:21;17.90;99.90
57719;DHT22;43561;50.090;18.522;2023-09-19T15:11:25;18.30;99.90
57719;DHT22;43561;50.090;18.522;2023-09-19T15:21:27;18.10;99.90
57719;DHT22;43561;50.090;18.522;2023-09-19T15:31:29;18.10;99.90
57719;DHT22;43561;50.090;18.522;2023-09-19T15:41:33;18.20;99.90
57719;DHT22;43561;50.090;18.522;2023-09-19T15:51:39;18.30;99.90
57719;DHT22;43561;50.090;18.522;2023-09-19T16:01:42;18.30;99.90
57719;DHT22;43561;50.090;18.522;2023-09-19T16:11:48;18.30;99.90
57719;DHT22;43561;50.090;18.522;2023-09-19T16:21:50;18.20;99.90
57719;DHT22;43561;50.090;18.522;2023-09-19T16:31:52;18.10;99.90
57719;DHT22;43561;50.090;18.522;2023-09-19T16:41:54;18.00;99.90
57719;DHT22;43561;50.090;18.522;2023-09-19T16:51:58;17.80;99.90
57719;DHT22;43561;50.090;18.522;2023-09-19T17:02:00;17.50;99.90
57719;DHT22;43561;50.090;18.522;2023-09-19T17:12:02;17.20;99.90
57719;DHT22;43561;50.090;18.522;2023-09-19T17:22:04;17.10;99.90
57719;DHT22;43561;50.090;18.522;2023-09-19T17:32:09;16.90;99.90
57719;DHT22;43561;50.090;18.522;2023-09-19T17:42:12;16.80;99.90
57719;DHT22;43561;50.090;18.522;2023-09-19T17:52:14;16.40;99.90
57719;DHT22;43561;50.090;18.522;2023-09-19T18:02:16;16.50;99.90
57719;DHT22;43561;50.090;18.522;2023-09-19T18:12:18;16.20;99.90
57719;DHT22;43561;50.090;18.522;2023-09-19T18:22:20;16.10;99.90
57719;DHT22;43561;50.090;18.522;2023-09-19T18:32:22;16.10;99.90
57719;DHT22;43561;50.090;18.522;2023-09-19T18:42:24;16.10;99.90
57719;DHT22;43561;50.090;18.522;2023-09-19T18:52:29;15.80;99.90
57719;DHT22;43561;50.090;18.522;2023-09-19T19:02:38;15.70;99.90
57719;DHT22;43561;50.090;18.522;2023-09-19T19:12:40;15.70;99.90
57719;DHT22;43561;50.090;18.522;2023-09-19T19:22:42;15.50;99.90
57719;DHT22;43561;50.090;18.522;2023-09-19T19:32:45;15.10;99.90
57719;DHT22;43561;50.090;18.522;2023-09-19T19:42:47;15.20;99.90
57719;DHT22;43561;50.090;18.522;2023-09-19T19:52:56;15.20;99.90
57719;DHT22;43561;50.090;18.522;2023-09-19T20:02:59;15.00;99.90
57719;DHT22;43561;50.090;18.522;2023-09-19T20:13:02;15.00;99.90
57719;DHT22;43561;50.090;18.522;2023-09-19T20:23:04;14.90;99.90
57719;DHT22;43561;50.090;18.522;2023-09-19T20:33:10;14.80;99.90
57719;DHT22;43561;50.090;18.522;2023-09-19T20:43:12;14.80;99.90
57719;DHT22;43561;50.090;18.522;2023-09-19T20:53:14;14.70;99.90
57719;DHT22;43561;50.090;18.522;2023-09-19T21:03:16;14.60;99.90
57719;DHT22;43561;50.090;18.522;2023-09-19T21:13:19;14.60;99.90
57719;DHT22;43561;50.090;18.522;2023-09-19T21:23:22;14.60;99.90
57719;DHT22;43561;50.090;18.522;2023-09-19T21:33:35;14.60;99.90
57719;DHT22;43561;50.090;18.522;2023-09-19T21:43:38;14.70;99.90
57719;DHT22;43561;50.090;18.522;2023-09-19T21:53:40;14.80;99.90
57719;DHT22;43561;50.090;18.522;2023-09-19T22:03:45;14.80;99.90
57719;DHT22;43561;50.090;18.522;2023-09-19T22:13:48;14.90;99.90
57719;DHT22;43561;50.090;18.522;2023-09-19T22:23:51;14.80;99.90
57719;DHT22;43561;50.090;18.522;2023-09-19T22:33:54;14.80;99.90
57719;DHT22;43561;50.090;18.522;2023-09-19T22:43:57;14.70;99.90
57719;DHT22;43561;50.090;18.522;2023-09-19T22:53:59;14.60;99.90
57719;DHT22;43561;50.090;18.522;2023-09-19T23:04:02;14.50;99.90
57719;DHT22;43561;50.090;18.522;2023-09-19T23:14:05;14.50;99.90
57719;DHT22;43561;50.090;18.522;2023-09-19T23:24:07;14.40;99.90
57719;DHT22;43561;50.090;18.522;2023-09-19T23:34:11;14.30;99.90
57719;DHT22;43561;50.090;18.522;2023-09-19T23:44:13;14.30;99.90
57719;DHT22;43561;50.090;18.522;2023-09-19T23:54:21;14.40;99.90
